sensor_id;sensor_type;location;lat;lon;timestamp;temperature;humidity
8313;DHT22;4194;43.408;24.626;2023-05-07T00:02:26;10.80;99.90
8313;DHT22;4194;43.408;24.626;2023-05-07T00:04:52;11.00;99.90
8313;DHT22;4194;43.408;24.626;2023-05-07T00:07:18;12.20;99.90
8313;DHT22;4194;43.408;24.626;2023-05-07T00:09:44;10.80;99.90
8313;DHT22;4194;43.408;24.626;2023-05-07T00:12:09;11.90;99.90
8313;DHT22;4194;43.408;24.626;2023-05-07T00:14:35;11.80;99.90
8313;DHT22;4194;43.408;24.626;2023-05-07T00:17:01;11.50;99.90
8313;DHT22;4194;43.408;24.626;2023-05-07T00:19:27;12.40;99.90
8313;DHT22;4194;43.408;24.626;2023-05-07T00:21:52;12.40;99.90
8313;DHT22;4194;43.408;24.626;2023-05-07T00:24:19;11.50;99.90
8313;DHT22;4194;43.408;24.626;2023-05-07T00:26:45;10.70;99.90
8313;DHT22;4194;43.408;24.626;2023-05-07T00:29:11;11.50;99.90
8313;DHT22;4194;43.408;24.626;2023-05-07T00:31:36;11.40;99.90
8313;DHT22;4194;43.408;24.626;2023-05-07T00:34:02;10.50;99.90
8313;DHT22;4194;43.408;24.626;2023-05-07T00:36:28;11.80;99.90
8313;DHT22;4194;43.408;24.626;2023-05-07T00:38:54;12.20;99.90
8313;DHT22;4194;43.408;24.626;2023-05-07T00:41:20;11.20;99.90
8313;DHT22;4194;43.408;24.626;2023-05-07T00:43:46;11.40;99.90
8313;DHT22;4194;43.408;24.626;2023-05-07T00:46:13;12.00;99.90
8313;DHT22;4194;43.408;24.626;2023-05-07T00:48:40;11.70;99.90
8313;DHT22;4194;43.408;24.626;2023-05-07T00:51:06;10.90;99.90
8313;DHT22;4194;43.408;24.626;2023-05-07T00:53:32;12.40;99.90
8313;DHT22;4194;43.408;24.626;2023-05-07T00:58:26;11.30;99.90
8313;DHT22;4194;43.408;24.626;2023-05-07T01:00:52;11.80;99.90
8313;DHT22;4194;43.408;24.626;2023-05-07T01:03:17;12.50;99.90
8313;DHT22;4194;43.408;24.626;2023-05-07T01:05:44;11.70;99.90
8313;DHT22;4194;43.408;24.626;2023-05-07T01:08:11;11.60;99.90
8313;DHT22;4194;43.408;24.626;2023-05-07T01:10:37;10.80;99.90
8313;DHT22;4194;43.408;24.626;2023-05-07T01:13:04;11.00;99.90
8313;DHT22;4194;43.408;24.626;2023-05-07T01:17:56;12.10;99.90
8313;DHT22;4194;43.408;24.626;2023-05-07T01:20:23;11.90;99.90
8313;DHT22;4194;43.408;24.626;2023-05-07T01:22:49;11.90;99.90
8313;DHT22;4194;43.408;24.626;2023-05-07T01:25:15;12.00;99.90
8313;DHT22;4194;43.408;24.626;2023-05-07T01:27:42;11.70;99.90
8313;DHT22;4194;43.408;24.626;2023-05-07T01:30:08;12.00;99.90
8313;DHT22;4194;43.408;24.626;2023-05-07T01:32:44;11.00;99.90
8313;DHT22;4194;43.408;24.626;2023-05-07T01:35:18;12.60;99.90
8313;DHT22;4194;43.408;24.626;2023-05-07T01:37:44;11.50;99.90
8313;DHT22;4194;43.408;24.626;2023-05-07T01:40:11;11.60;99.90
8313;DHT22;4194;43.408;24.626;2023-05-07T01:42:37;11.50;99.90
8313;DHT22;4194;43.408;24.626;2023-05-07T01:45:03;12.40;99.90
8313;DHT22;4194;43.408;24.626;2023-05-07T01:47:29;11.50;99.90
8313;DHT22;4194;43.408;24.626;2023-05-07T01:49:56;11.40;99.90
8313;DHT22;4194;43.408;24.626;2023-05-07T01:52:22;10.90;99.90
8313;DHT22;4194;43.408;24.626;2023-05-07T01:54:48;11.20;99.90
8313;DHT22;4194;43.408;24.626;2023-05-07T01:57:13;10.80;99.90
8313;DHT22;4194;43.408;24.626;2023-05-07T01:59:39;11.50;99.90
8313;DHT22;4194;43.408;24.626;2023-05-07T02:02:05;11.20;99.90
8313;DHT22;4194;43.408;24.626;2023-05-07T02:04:30;11.20;99.90
8313;DHT22;4194;43.408;24.626;2023-05-07T02:06:56;11.50;99.90
8313;DHT22;4194;43.408;24.626;2023-05-07T02:09:22;11.70;99.90
8313;DHT22;4194;43.408;24.626;2023-05-07T02:11:48;10.90;99.90
8313;DHT22;4194;43.408;24.626;2023-05-07T02:14:14;10.60;99.90
8313;DHT22;4194;43.408;24.626;2023-05-07T02:16:41;11.00;99.90
8313;DHT22;4194;43.408;24.626;2023-05-07T02:19:07;11.00;99.90
8313;DHT22;4194;43.408;24.626;2023-05-07T02:21:32;10.50;99.90
8313;DHT22;4194;43.408;24.626;2023-05-07T02:26:24;10.90;99.90
8313;DHT22;4194;43.408;24.626;2023-05-07T02:28:51;11.40;99.90
8313;DHT22;4194;43.408;24.626;2023-05-07T02:31:17;11.10;99.90
8313;DHT22;4194;43.408;24.626;2023-05-07T02:33:43;10.90;99.90
8313;DHT22;4194;43.408;24.626;2023-05-07T02:36:09;10.80;99.90
8313;DHT22;4194;43.408;24.626;2023-05-07T02:38:35;11.20;99.90
8313;DHT22;4194;43.408;24.626;2023-05-07T02:43:27;10.80;99.90
8313;DHT22;4194;43.408;24.626;2023-05-07T02:46:03;10.90;99.90
8313;DHT22;4194;43.408;24.626;2023-05-07T02:48:30;11.10;99.90
8313;DHT22;4194;43.408;24.626;2023-05-07T02:50:55;10.70;99.90
8313;DHT22;4194;43.408;24.626;2023-05-07T02:53:21;11.80;99.90
8313;DHT22;4194;43.408;24.626;2023-05-07T02:55:47;11.00;99.90
8313;DHT22;4194;43.408;24.626;2023-05-07T02:58:12;11.30;99.90
8313;DHT22;4194;43.408;24.626;2023-05-07T03:00:38;11.00;99.90
8313;DHT22;4194;43.408;24.626;2023-05-07T03:03:04;10.80;99.90
8313;DHT22;4194;43.408;24.626;2023-05-07T03:05:30;10.40;99.90
8313;DHT22;4194;43.408;24.626;2023-05-07T03:07:55;10.70;99.90
8313;DHT22;4194;43.408;24.626;2023-05-07T03:10:21;10.70;99.90
8313;DHT22;4194;43.408;24.626;2023-05-07T03:12:47;11.40;99.90
8313;DHT22;4194;43.408;24.626;2023-05-07T03:15:12;10.60;99.90
8313;DHT22;4194;43.408;24.626;2023-05-07T03:17:38;10.40;99.90
8313;DHT22;4194;43.408;24.626;2023-05-07T03:20:05;10.30;99.90
8313;DHT22;4194;43.408;24.626;2023-05-07T03:22:31;11.00;99.90
8313;DHT22;4194;43.408;24.626;2023-05-07T03:24:56;11.10;99.90
8313;DHT22;4194;43.408;24.626;2023-05-07T03:27:22;10.90;99.90
8313;DHT22;4194;43.408;24.626;2023-05-07T03:29:48;10.90;99.90
8313;DHT22;4194;43.408;24.626;2023-05-07T03:32:14;10.90;99.90
8313;DHT22;4194;43.408;24.626;2023-05-07T03:34:40;10.70;99.90
8313;DHT22;4194;43.408;24.626;2023-05-07T03:37:05;10.70;99.90
8313;DHT22;4194;43.408;24.626;2023-05-07T03:39:31;9.70;99.90
8313;DHT22;4194;43.408;24.626;2023-05-07T03:41:58;11.30;99.90
8313;DHT22;4194;43.408;24.626;2023-05-07T03:44:23;11.40;99.90
8313;DHT22;4194;43.408;24.626;2023-05-07T03:46:49;10.50;99.90
8313;DHT22;4194;43.408;24.626;2023-05-07T03:49:15;11.10;99.90
8313;DHT22;4194;43.408;24.626;2023-05-07T03:51:41;10.90;99.90
8313;DHT22;4194;43.408;24.626;2023-05-07T03:54:07;11.10;99.90
8313;DHT22;4194;43.408;24.626;2023-05-07T03:56:32;11.10;99.90
8313;DHT22;4194;43.408;24.626;2023-05-07T03:58:58;11.10;99.90
8313;DHT22;4194;43.408;24.626;2023-05-07T04:03:50;11.40;99.90
8313;DHT22;4194;43.408;24.626;2023-05-07T04:06:16;11.30;99.90
8313;DHT22;4194;43.408;24.626;2023-05-07T04:08:42;11.40;99.90
8313;DHT22;4194;43.408;24.626;2023-05-07T04:11:08;11.80;99.90
8313;DHT22;4194;43.408;24.626;2023-05-07T04:13:34;12.20;99.90
8313;DHT22;4194;43.408;24.626;2023-05-07T04:16:02;11.70;99.90
8313;DHT22;4194;43.408;24.626;2023-05-07T04:18:28;11.80;99.90
8313;DHT22;4194;43.408;24.626;2023-05-07T04:20:54;11.80;99.90
8313;DHT22;4194;43.408;24.626;2023-05-07T04:23:19;11.80;99.90
8313;DHT22;4194;43.408;24.626;2023-05-07T04:25:45;12.40;99.90
8313;DHT22;4194;43.408;24.626;2023-05-07T04:30:38;11.90;99.90
8313;DHT22;4194;43.408;24.626;2023-05-07T04:33:04;10.80;99.90
8313;DHT22;4194;43.408;24.626;2023-05-07T04:35:29;11.40;99.90
8313;DHT22;4194;43.408;24.626;2023-05-07T04:37:55;12.20;99.90
8313;DHT22;4194;43.408;24.626;2023-05-07T04:40:21;12.40;99.90
8313;DHT22;4194;43.408;24.626;2023-05-07T04:42:46;13.00;99.90
8313;DHT22;4194;43.408;24.626;2023-05-07T04:45:12;11.70;99.90
8313;DHT22;4194;43.408;24.626;2023-05-07T04:47:38;12.20;99.90
8313;DHT22;4194;43.408;24.626;2023-05-07T04:50:05;12.30;99.90
8313;DHT22;4194;43.408;24.626;2023-05-07T04:52:31;12.50;99.90
8313;DHT22;4194;43.408;24.626;2023-05-07T04:54:59;12.80;99.90
8313;DHT22;4194;43.408;24.626;2023-05-07T04:57:25;12.40;99.90
8313;DHT22;4194;43.408;24.626;2023-05-07T04:59:52;13.10;99.90
8313;DHT22;4194;43.408;24.626;2023-05-07T05:02:17;13.00;99.90
8313;DHT22;4194;43.408;24.626;2023-05-07T05:04:43;13.20;99.90
8313;DHT22;4194;43.408;24.626;2023-05-07T05:07:08;12.60;99.90
8313;DHT22;4194;43.408;24.626;2023-05-07T05:09:34;13.20;99.90
8313;DHT22;4194;43.408;24.626;2023-05-07T05:12:00;12.90;99.90
8313;DHT22;4194;43.408;24.626;2023-05-07T05:14:25;14.50;99.90
8313;DHT22;4194;43.408;24.626;2023-05-07T05:16:51;13.80;99.90
8313;DHT22;4194;43.408;24.626;2023-05-07T05:19:17;14.30;99.90
8313;DHT22;4194;43.408;24.626;2023-05-07T05:21:42;13.80;99.90
8313;DHT22;4194;43.408;24.626;2023-05-07T05:24:08;14.50;99.90
8313;DHT22;4194;43.408;24.626;2023-05-07T05:26:34;15.70;99.90
8313;DHT22;4194;43.408;24.626;2023-05-07T05:29:00;14.80;99.90
8313;DHT22;4194;43.408;24.626;2023-05-07T05:31:26;14.80;99.90
8313;DHT22;4194;43.408;24.626;2023-05-07T05:33:51;15.80;99.90
8313;DHT22;4194;43.408;24.626;2023-05-07T05:36:17;15.90;99.90
8313;DHT22;4194;43.408;24.626;2023-05-07T05:38:43;16.00;99.90
8313;DHT22;4194;43.408;24.626;2023-05-07T05:41:09;15.30;99.90
8313;DHT22;4194;43.408;24.626;2023-05-07T05:43:35;15.90;99.90
8313;DHT22;4194;43.408;24.626;2023-05-07T05:46:01;14.60;99.90
8313;DHT22;4194;43.408;24.626;2023-05-07T05:48:29;15.90;99.90
8313;DHT22;4194;43.408;24.626;2023-05-07T05:50:54;16.20;99.90
8313;DHT22;4194;43.408;24.626;2023-05-07T05:53:20;14.90;99.90
8313;DHT22;4194;43.408;24.626;2023-05-07T05:55:46;15.70;99.90
8313;DHT22;4194;43.408;24.626;2023-05-07T05:58:12;15.00;99.90
8313;DHT22;4194;43.408;24.626;2023-05-07T06:00:37;16.30;99.40
8313;DHT22;4194;43.408;24.626;2023-05-07T06:03:03;17.60;97.50
8313;DHT22;4194;43.408;24.626;2023-05-07T06:05:29;18.00;96.90
8313;DHT22;4194;43.408;24.626;2023-05-07T06:07:55;16.80;96.70
8313;DHT22;4194;43.408;24.626;2023-05-07T06:10:21;17.30;95.00
8313;DHT22;4194;43.408;24.626;2023-05-07T06:12:47;18.60;90.20
8313;DHT22;4194;43.408;24.626;2023-05-07T06:15:12;17.50;90.00
8313;DHT22;4194;43.408;24.626;2023-05-07T06:17:38;17.00;79.10
8313;DHT22;4194;43.408;24.626;2023-05-07T06:20:04;17.50;79.80
8313;DHT22;4194;43.408;24.626;2023-05-07T06:22:30;18.00;81.00
8313;DHT22;4194;43.408;24.626;2023-05-07T06:24:56;18.90;79.60
8313;DHT22;4194;43.408;24.626;2023-05-07T06:27:21;18.70;80.20
8313;DHT22;4194;43.408;24.626;2023-05-07T06:29:48;18.90;75.20
8313;DHT22;4194;43.408;24.626;2023-05-07T06:32:14;18.60;75.70
8313;DHT22;4194;43.408;24.626;2023-05-07T06:34:40;19.00;74.10
8313;DHT22;4194;43.408;24.626;2023-05-07T06:37:06;19.10;72.50
8313;DHT22;4194;43.408;24.626;2023-05-07T06:39:32;19.00;72.10
8313;DHT22;4194;43.408;24.626;2023-05-07T06:41:59;19.10;70.50
8313;DHT22;4194;43.408;24.626;2023-05-07T06:44:25;19.20;70.60
8313;DHT22;4194;43.408;24.626;2023-05-07T06:46:50;19.20;68.50
8313;DHT22;4194;43.408;24.626;2023-05-07T06:49:16;18.80;67.40
8313;DHT22;4194;43.408;24.626;2023-05-07T06:51:42;19.40;68.10
8313;DHT22;4194;43.408;24.626;2023-05-07T06:54:07;20.20;69.30
8313;DHT22;4194;43.408;24.626;2023-05-07T06:56:33;19.80;67.60
8313;DHT22;4194;43.408;24.626;2023-05-07T06:59:00;20.00;65.80
8313;DHT22;4194;43.408;24.626;2023-05-07T07:01:26;19.50;65.00
8313;DHT22;4194;43.408;24.626;2023-05-07T07:03:52;21.20;67.40
8313;DHT22;4194;43.408;24.626;2023-05-07T07:06:17;19.90;66.60
8313;DHT22;4194;43.408;24.626;2023-05-07T07:08:43;20.50;68.10
8313;DHT22;4194;43.408;24.626;2023-05-07T07:11:10;20.30;67.30
8313;DHT22;4194;43.408;24.626;2023-05-07T07:13:36;20.30;68.20
8313;DHT22;4194;43.408;24.626;2023-05-07T07:16:02;20.30;69.20
8313;DHT22;4194;43.408;24.626;2023-05-07T07:18:28;20.50;67.40
8313;DHT22;4194;43.408;24.626;2023-05-07T07:20:54;20.20;66.00
8313;DHT22;4194;43.408;24.626;2023-05-07T07:23:20;21.00;68.50
8313;DHT22;4194;43.408;24.626;2023-05-07T07:25:45;19.30;67.40
8313;DHT22;4194;43.408;24.626;2023-05-07T07:28:11;20.70;67.50
8313;DHT22;4194;43.408;24.626;2023-05-07T07:30:37;20.70;67.20
8313;DHT22;4194;43.408;24.626;2023-05-07T07:33:03;21.80;66.70
8313;DHT22;4194;43.408;24.626;2023-05-07T07:35:30;21.00;66.60
8313;DHT22;4194;43.408;24.626;2023-05-07T07:37:56;21.90;66.20
8313;DHT22;4194;43.408;24.626;2023-05-07T07:40:23;21.50;65.20
8313;DHT22;4194;43.408;24.626;2023-05-07T07:42:48;22.10;65.70
8313;DHT22;4194;43.408;24.626;2023-05-07T07:45:14;20.80;64.50
8313;DHT22;4194;43.408;24.626;2023-05-07T07:47:40;21.80;64.90
8313;DHT22;4194;43.408;24.626;2023-05-07T07:50:06;21.20;63.80
8313;DHT22;4194;43.408;24.626;2023-05-07T07:52:33;21.40;60.40
8313;DHT22;4194;43.408;24.626;2023-05-07T07:54:58;21.60;60.60
8313;DHT22;4194;43.408;24.626;2023-05-07T07:57:24;21.80;58.80
8313;DHT22;4194;43.408;24.626;2023-05-07T07:59:50;22.50;58.80
8313;DHT22;4194;43.408;24.626;2023-05-07T08:02:16;21.10;57.80
8313;DHT22;4194;43.408;24.626;2023-05-07T08:04:42;22.90;59.80
8313;DHT22;4194;43.408;24.626;2023-05-07T08:07:09;22.20;59.10
8313;DHT22;4194;43.408;24.626;2023-05-07T08:09:36;21.80;59.10
8313;DHT22;4194;43.408;24.626;2023-05-07T08:12:02;23.60;61.50
8313;DHT22;4194;43.408;24.626;2023-05-07T08:14:28;22.20;59.20
8313;DHT22;4194;43.408;24.626;2023-05-07T08:16:54;23.60;60.10
8313;DHT22;4194;43.408;24.626;2023-05-07T08:21:47;23.10;59.40
8313;DHT22;4194;43.408;24.626;2023-05-07T08:24:16;22.40;55.90
8313;DHT22;4194;43.408;24.626;2023-05-07T08:26:42;23.00;56.60
8313;DHT22;4194;43.408;24.626;2023-05-07T08:29:08;23.10;55.10
8313;DHT22;4194;43.408;24.626;2023-05-07T08:31:34;23.10;54.00
8313;DHT22;4194;43.408;24.626;2023-05-07T08:34:00;22.80;55.60
8313;DHT22;4194;43.408;24.626;2023-05-07T08:36:26;22.70;55.80
8313;DHT22;4194;43.408;24.626;2023-05-07T08:38:52;23.00;56.80
8313;DHT22;4194;43.408;24.626;2023-05-07T08:41:18;23.80;57.00
8313;DHT22;4194;43.408;24.626;2023-05-07T08:43:48;23.20;55.40
8313;DHT22;4194;43.408;24.626;2023-05-07T08:46:19;23.50;54.40
8313;DHT22;4194;43.408;24.626;2023-05-07T08:48:48;23.80;54.80
8313;DHT22;4194;43.408;24.626;2023-05-07T08:51:16;23.40;54.10
8313;DHT22;4194;43.408;24.626;2023-05-07T08:53:43;23.90;51.90
8313;DHT22;4194;43.408;24.626;2023-05-07T08:56:09;23.20;53.70
8313;DHT22;4194;43.408;24.626;2023-05-07T08:58:35;24.10;54.80
8313;DHT22;4194;43.408;24.626;2023-05-07T09:01:06;23.70;52.80
8313;DHT22;4194;43.408;24.626;2023-05-07T09:03:32;23.70;53.50
8313;DHT22;4194;43.408;24.626;2023-05-07T09:08:25;24.30;51.60
8313;DHT22;4194;43.408;24.626;2023-05-07T09:10:52;24.00;50.10
8313;DHT22;4194;43.408;24.626;2023-05-07T09:13:18;23.00;49.40
8313;DHT22;4194;43.408;24.626;2023-05-07T09:15:44;22.90;50.30
8313;DHT22;4194;43.408;24.626;2023-05-07T09:18:09;23.70;52.30
8313;DHT22;4194;43.408;24.626;2023-05-07T09:20:40;24.00;52.10
8313;DHT22;4194;43.408;24.626;2023-05-07T09:23:07;24.10;51.80
8313;DHT22;4194;43.408;24.626;2023-05-07T09:25:34;24.40;50.70
8313;DHT22;4194;43.408;24.626;2023-05-07T09:28:01;24.40;50.10
8313;DHT22;4194;43.408;24.626;2023-05-07T09:33:48;24.80;51.50
8313;DHT22;4194;43.408;24.626;2023-05-07T09:36:15;24.60;50.00
8313;DHT22;4194;43.408;24.626;2023-05-07T09:38:41;24.90;51.10
8313;DHT22;4194;43.408;24.626;2023-05-07T09:41:09;25.70;49.10
8313;DHT22;4194;43.408;24.626;2023-05-07T09:43:37;24.30;47.70
8313;DHT22;4194;43.408;24.626;2023-05-07T09:46:14;24.20;48.90
8313;DHT22;4194;43.408;24.626;2023-05-07T09:48:43;25.50;50.50
8313;DHT22;4194;43.408;24.626;2023-05-07T09:53:48;25.10;50.10
8313;DHT22;4194;43.408;24.626;2023-05-07T09:56:16;24.60;48.50
8313;DHT22;4194;43.408;24.626;2023-05-07T09:58:43;25.30;49.50
8313;DHT22;4194;43.408;24.626;2023-05-07T10:01:11;25.20;50.10
8313;DHT22;4194;43.408;24.626;2023-05-07T10:03:40;24.40;48.70
8313;DHT22;4194;43.408;24.626;2023-05-07T10:06:08;25.40;49.30
8313;DHT22;4194;43.408;24.626;2023-05-07T10:08:35;24.30;47.70
8313;DHT22;4194;43.408;24.626;2023-05-07T10:11:01;25.60;48.70
8313;DHT22;4194;43.408;24.626;2023-05-07T10:13:29;25.80;49.20
8313;DHT22;4194;43.408;24.626;2023-05-07T10:15:55;26.60;47.70
8313;DHT22;4194;43.408;24.626;2023-05-07T10:18:22;24.60;44.70
8313;DHT22;4194;43.408;24.626;2023-05-07T10:20:51;25.70;46.70
8313;DHT22;4194;43.408;24.626;2023-05-07T10:23:23;26.20;47.90
8313;DHT22;4194;43.408;24.626;2023-05-07T10:25:50;26.70;46.20
8313;DHT22;4194;43.408;24.626;2023-05-07T10:28:17;27.50;47.30
8313;DHT22;4194;43.408;24.626;2023-05-07T10:31:10;26.80;47.50
8313;DHT22;4194;43.408;24.626;2023-05-07T10:33:39;27.60;44.80
8313;DHT22;4194;43.408;24.626;2023-05-07T10:36:05;28.30;43.00
8313;DHT22;4194;43.408;24.626;2023-05-07T10:38:33;28.50;43.70
8313;DHT22;4194;43.408;24.626;2023-05-07T10:40:59;29.20;44.10
8313;DHT22;4194;43.408;24.626;2023-05-07T10:43:25;28.70;43.00
8313;DHT22;4194;43.408;24.626;2023-05-07T10:51:26;29.80;41.90
8313;DHT22;4194;43.408;24.626;2023-05-07T10:54:19;30.70;40.00
8313;DHT22;4194;43.408;24.626;2023-05-07T10:56:45;29.50;40.30
8313;DHT22;4194;43.408;24.626;2023-05-07T11:02:01;31.10;39.40
8313;DHT22;4194;43.408;24.626;2023-05-07T11:04:29;31.00;40.30
8313;DHT22;4194;43.408;24.626;2023-05-07T11:12:45;31.20;40.10
8313;DHT22;4194;43.408;24.626;2023-05-07T11:17:51;31.40;38.60
8313;DHT22;4194;43.408;24.626;2023-05-07T11:20:18;31.10;37.90
8313;DHT22;4194;43.408;24.626;2023-05-07T11:22:44;31.60;38.80
8313;DHT22;4194;43.408;24.626;2023-05-07T11:25:10;31.30;39.40
8313;DHT22;4194;43.408;24.626;2023-05-07T11:27:36;31.40;39.60
8313;DHT22;4194;43.408;24.626;2023-05-07T11:30:02;30.40;38.30
8313;DHT22;4194;43.408;24.626;2023-05-07T11:32:29;31.50;38.10
8313;DHT22;4194;43.408;24.626;2023-05-07T11:34:56;31.30;38.70
8313;DHT22;4194;43.408;24.626;2023-05-07T11:37:23;32.30;37.20
8313;DHT22;4194;43.408;24.626;2023-05-07T11:39:50;32.20;38.30
8313;DHT22;4194;43.408;24.626;2023-05-07T11:42:38;32.50;39.30
8313;DHT22;4194;43.408;24.626;2023-05-07T11:45:05;33.50;36.50
8313;DHT22;4194;43.408;24.626;2023-05-07T11:47:31;31.90;36.30
8313;DHT22;4194;43.408;24.626;2023-05-07T11:50:05;32.00;37.00
8313;DHT22;4194;43.408;24.626;2023-05-07T11:52:31;31.20;37.90
8313;DHT22;4194;43.408;24.626;2023-05-07T11:54:59;31.10;38.00
8313;DHT22;4194;43.408;24.626;2023-05-07T11:57:26;31.20;37.30
8313;DHT22;4194;43.408;24.626;2023-05-07T11:59:55;32.10;39.10
8313;DHT22;4194;43.408;24.626;2023-05-07T12:02:21;31.70;38.30
8313;DHT22;4194;43.408;24.626;2023-05-07T12:04:46;32.40;38.20
8313;DHT22;4194;43.408;24.626;2023-05-07T12:07:12;32.40;38.80
8313;DHT22;4194;43.408;24.626;2023-05-07T12:09:42;33.30;36.60
8313;DHT22;4194;43.408;24.626;2023-05-07T12:12:08;33.00;35.10
8313;DHT22;4194;43.408;24.626;2023-05-07T12:14:39;32.80;36.70
8313;DHT22;4194;43.408;24.626;2023-05-07T12:17:05;34.30;35.50
8313;DHT22;4194;43.408;24.626;2023-05-07T12:19:31;33.10;35.20
8313;DHT22;4194;43.408;24.626;2023-05-07T12:21:58;33.80;35.30
8313;DHT22;4194;43.408;24.626;2023-05-07T12:24:24;34.40;34.80
8313;DHT22;4194;43.408;24.626;2023-05-07T12:26:50;35.10;36.20
8313;DHT22;4194;43.408;24.626;2023-05-07T12:29:16;34.30;34.00
8313;DHT22;4194;43.408;24.626;2023-05-07T12:31:43;35.40;33.70
8313;DHT22;4194;43.408;24.626;2023-05-07T12:34:12;36.60;33.50
8313;DHT22;4194;43.408;24.626;2023-05-07T12:36:39;36.40;33.40
8313;DHT22;4194;43.408;24.626;2023-05-07T12:39:06;37.20;33.50
8313;DHT22;4194;43.408;24.626;2023-05-07T12:41:51;34.20;32.20
8313;DHT22;4194;43.408;24.626;2023-05-07T12:44:18;37.90;32.90
8313;DHT22;4194;43.408;24.626;2023-05-07T12:46:44;38.00;32.80
8313;DHT22;4194;43.408;24.626;2023-05-07T12:49:09;37.30;31.30
8313;DHT22;4194;43.408;24.626;2023-05-07T12:51:35;38.30;29.80
8313;DHT22;4194;43.408;24.626;2023-05-07T12:54:01;39.20;31.00
8313;DHT22;4194;43.408;24.626;2023-05-07T12:56:26;39.10;29.80
8313;DHT22;4194;43.408;24.626;2023-05-07T12:58:57;38.30;30.00
8313;DHT22;4194;43.408;24.626;2023-05-07T13:01:29;38.20;29.70
8313;DHT22;4194;43.408;24.626;2023-05-07T13:03:56;39.40;29.30
8313;DHT22;4194;43.408;24.626;2023-05-07T13:06:25;39.80;29.10
8313;DHT22;4194;43.408;24.626;2023-05-07T13:08:51;39.00;28.00
8313;DHT22;4194;43.408;24.626;2023-05-07T13:11:17;39.30;29.00
8313;DHT22;4194;43.408;24.626;2023-05-07T13:13:42;39.30;29.50
8313;DHT22;4194;43.408;24.626;2023-05-07T13:16:09;39.20;30.40
8313;DHT22;4194;43.408;24.626;2023-05-07T13:18:37;39.00;28.80
8313;DHT22;4194;43.408;24.626;2023-05-07T13:21:03;40.30;29.10
8313;DHT22;4194;43.408;24.626;2023-05-07T13:23:29;40.90;28.80
8313;DHT22;4194;43.408;24.626;2023-05-07T13:25:55;40.40;28.10
8313;DHT22;4194;43.408;24.626;2023-05-07T13:28:26;41.70;28.10
8313;DHT22;4194;43.408;24.626;2023-05-07T13:30:52;41.80;27.80
8313;DHT22;4194;43.408;24.626;2023-05-07T13:33:18;41.60;27.60
8313;DHT22;4194;43.408;24.626;2023-05-07T13:35:44;41.70;28.20
8313;DHT22;4194;43.408;24.626;2023-05-07T13:38:12;41.80;28.50
8313;DHT22;4194;43.408;24.626;2023-05-07T13:40:38;41.50;27.90
8313;DHT22;4194;43.408;24.626;2023-05-07T13:43:05;41.70;28.00
8313;DHT22;4194;43.408;24.626;2023-05-07T13:45:31;42.00;28.60
8313;DHT22;4194;43.408;24.626;2023-05-07T13:47:57;41.10;27.70
8313;DHT22;4194;43.408;24.626;2023-05-07T13:50:23;40.00;28.30
8313;DHT22;4194;43.408;24.626;2023-05-07T13:52:48;38.80;28.90
8313;DHT22;4194;43.408;24.626;2023-05-07T13:55:17;38.80;30.70
8313;DHT22;4194;43.408;24.626;2023-05-07T13:57:43;38.20;30.00
8313;DHT22;4194;43.408;24.626;2023-05-07T14:00:10;38.90;30.60
8313;DHT22;4194;43.408;24.626;2023-05-07T14:02:35;40.00;30.00
8313;DHT22;4194;43.408;24.626;2023-05-07T14:05:01;41.50;28.50
8313;DHT22;4194;43.408;24.626;2023-05-07T14:07:27;41.60;28.90
8313;DHT22;4194;43.408;24.626;2023-05-07T14:09:54;41.10;27.60
8313;DHT22;4194;43.408;24.626;2023-05-07T14:12:19;41.20;28.30
8313;DHT22;4194;43.408;24.626;2023-05-07T14:14:45;43.00;27.10
8313;DHT22;4194;43.408;24.626;2023-05-07T14:17:12;43.40;26.70
8313;DHT22;4194;43.408;24.626;2023-05-07T14:19:38;43.20;27.40
8313;DHT22;4194;43.408;24.626;2023-05-07T14:22:04;43.10;27.10
8313;DHT22;4194;43.408;24.626;2023-05-07T14:24:29;43.30;26.50
8313;DHT22;4194;43.408;24.626;2023-05-07T14:26:55;42.20;26.90
8313;DHT22;4194;43.408;24.626;2023-05-07T14:29:21;42.90;27.10
8313;DHT22;4194;43.408;24.626;2023-05-07T14:31:48;42.90;27.70
8313;DHT22;4194;43.408;24.626;2023-05-07T14:34:13;43.50;27.10
8313;DHT22;4194;43.408;24.626;2023-05-07T14:36:39;44.30;27.10
8313;DHT22;4194;43.408;24.626;2023-05-07T14:39:05;44.80;26.50
8313;DHT22;4194;43.408;24.626;2023-05-07T14:41:31;44.00;26.30
8313;DHT22;4194;43.408;24.626;2023-05-07T14:43:58;43.40;26.60
8313;DHT22;4194;43.408;24.626;2023-05-07T14:46:24;44.00;26.50
8313;DHT22;4194;43.408;24.626;2023-05-07T14:48:51;43.90;26.80
8313;DHT22;4194;43.408;24.626;2023-05-07T14:51:19;44.20;26.10
8313;DHT22;4194;43.408;24.626;2023-05-07T14:53:45;43.30;26.60
8313;DHT22;4194;43.408;24.626;2023-05-07T14:56:11;42.80;27.10
8313;DHT22;4194;43.408;24.626;2023-05-07T14:58:37;42.60;27.30
8313;DHT22;4194;43.408;24.626;2023-05-07T15:01:03;42.60;27.80
8313;DHT22;4194;43.408;24.626;2023-05-07T15:03:29;43.10;26.80
8313;DHT22;4194;43.408;24.626;2023-05-07T15:05:55;43.10;27.40
8313;DHT22;4194;43.408;24.626;2023-05-07T15:08:21;43.20;26.80
8313;DHT22;4194;43.408;24.626;2023-05-07T15:10:47;43.40;27.50
8313;DHT22;4194;43.408;24.626;2023-05-07T15:13:12;43.20;27.60
8313;DHT22;4194;43.408;24.626;2023-05-07T15:15:39;43.80;26.60
8313;DHT22;4194;43.408;24.626;2023-05-07T15:18:05;41.50;26.90
8313;DHT22;4194;43.408;24.626;2023-05-07T15:20:31;42.20;27.40
8313;DHT22;4194;43.408;24.626;2023-05-07T15:27:49;42.70;27.20
8313;DHT22;4194;43.408;24.626;2023-05-07T15:30:15;42.00;27.40
8313;DHT22;4194;43.408;24.626;2023-05-07T15:32:41;42.00;28.00
8313;DHT22;4194;43.408;24.626;2023-05-07T15:35:09;41.90;27.80
8313;DHT22;4194;43.408;24.626;2023-05-07T15:37:35;40.30;28.80
8313;DHT22;4194;43.408;24.626;2023-05-07T15:40:01;40.50;28.70
8313;DHT22;4194;43.408;24.626;2023-05-07T15:42:32;38.70;28.30
8313;DHT22;4194;43.408;24.626;2023-05-07T15:44:58;39.80;28.90
8313;DHT22;4194;43.408;24.626;2023-05-07T15:47:25;40.40;29.50
8313;DHT22;4194;43.408;24.626;2023-05-07T15:52:17;39.00;29.60
8313;DHT22;4194;43.408;24.626;2023-05-07T15:54:43;37.40;29.50
8313;DHT22;4194;43.408;24.626;2023-05-07T15:57:09;37.20;30.10
8313;DHT22;4194;43.408;24.626;2023-05-07T15:59:36;37.30;31.10
8313;DHT22;4194;43.408;24.626;2023-05-07T16:02:02;33.70;34.80
8313;DHT22;4194;43.408;24.626;2023-05-07T16:04:28;31.00;36.30
8313;DHT22;4194;43.408;24.626;2023-05-07T16:06:53;28.70;38.70
8313;DHT22;4194;43.408;24.626;2023-05-07T16:09:19;27.60;41.30
8313;DHT22;4194;43.408;24.626;2023-05-07T16:11:45;26.50;41.90
8313;DHT22;4194;43.408;24.626;2023-05-07T16:14:11;26.40;43.60
8313;DHT22;4194;43.408;24.626;2023-05-07T16:19:05;27.10;46.30
8313;DHT22;4194;43.408;24.626;2023-05-07T16:21:31;25.00;45.60
8313;DHT22;4194;43.408;24.626;2023-05-07T16:23:57;25.40;47.70
8313;DHT22;4194;43.408;24.626;2023-05-07T16:28:49;24.80;48.50
8313;DHT22;4194;43.408;24.626;2023-05-07T16:31:16;24.70;48.70
8313;DHT22;4194;43.408;24.626;2023-05-07T16:33:43;25.20;50.00
8313;DHT22;4194;43.408;24.626;2023-05-07T16:36:09;24.20;49.70